createdAt,value
2022-12-23T00:01:28.176Z,7.76
2022-12-23T00:04:00.542Z,7.73
2022-12-23T00:06:28.918Z,7.83
2022-12-23T00:08:59.401Z,7.83
2022-12-23T00:11:29.555Z,7.66
2022-12-23T00:14:21.219Z,7.74
2022-12-23T00:16:51.651Z,7.91
2022-12-23T00:19:21.451Z,7.90
2022-12-23T00:21:49.717Z,7.69
2022-12-23T00:24:18.107Z,7.70
2022-12-23T00:26:46.497Z,7.67
2022-12-23T00:29:14.823Z,7.82
2022-12-23T00:31:43.163Z,7.81
2022-12-23T00:34:13.017Z,7.93
2022-12-23T00:36:42.833Z,7.86
2022-12-23T00:39:31.541Z,7.66
2022-12-23T00:42:17.577Z,7.89
2022-12-23T00:44:45.954Z,7.91
2022-12-23T00:47:36.073Z,7.90
2022-12-23T00:50:03.507Z,7.98
2022-12-23T00:52:33.140Z,7.93
2022-12-23T00:55:01.453Z,7.91
2022-12-23T00:57:31.720Z,7.91
2022-12-23T01:00:00.232Z,7.82
2022-12-23T01:02:46.225Z,7.85
2022-12-23T01:05:40.347Z,7.92
2022-12-23T01:08:12.983Z,7.55
2022-12-23T01:10:42.265Z,7.67
2022-12-23T01:13:10.558Z,7.87
2022-12-23T01:15:38.861Z,7.75
2022-12-23T01:18:07.292Z,7.74
2022-12-23T01:20:35.958Z,7.80
2022-12-23T01:23:04.362Z,7.71
2022-12-23T01:25:34.660Z,7.66
2022-12-23T01:28:03.043Z,7.70
2022-12-23T01:30:31.369Z,7.74
2022-12-23T01:32:59.732Z,7.70
2022-12-23T01:35:28.341Z,7.76
2022-12-23T01:37:56.604Z,7.77
2022-12-23T01:40:25.024Z,7.81
2022-12-23T01:42:53.772Z,7.77
2022-12-23T01:45:28.672Z,7.71
2022-12-23T01:48:00.106Z,7.67
2022-12-23T01:50:32.530Z,7.75
2022-12-23T01:53:08.194Z,7.78
2022-12-23T01:55:42.651Z,7.55
2022-12-23T01:58:16.415Z,7.70
2022-12-23T02:01:02.380Z,7.54
2022-12-23T02:03:43.363Z,7.72
2022-12-23T02:06:36.772Z,7.74
2022-12-23T02:09:18.109Z,7.94
2022-12-23T02:12:36.947Z,8.03
2022-12-23T02:15:44.915Z,7.88
2022-12-23T02:18:37.412Z,7.74
2022-12-23T02:21:23.280Z,8.02
2022-12-23T02:24:26.111Z,7.90
2022-12-23T02:27:14.600Z,7.63
2022-12-23T02:30:26.098Z,7.90
2022-12-23T02:33:20.620Z,7.65
2022-12-23T02:36:00.473Z,7.75
2022-12-23T02:38:35.406Z,7.85
2022-12-23T02:41:15.123Z,7.76
2022-12-23T02:43:48.385Z,7.86
2022-12-23T02:46:25.039Z,7.94
2022-12-23T02:49:02.132Z,7.91
2022-12-23T02:51:36.107Z,8.03
2022-12-23T02:54:09.898Z,7.95
2022-12-23T02:56:44.137Z,8.10
2022-12-23T02:59:17.161Z,8.11
2022-12-23T03:01:46.802Z,7.80
2022-12-23T03:04:16.942Z,8.05
2022-12-23T03:06:49.426Z,8.12
2022-12-23T03:09:30.517Z,8.03
2022-12-23T03:12:07.329Z,7.87
2022-12-23T03:14:57.760Z,7.76
2022-12-23T03:17:44.358Z,8.01
2022-12-23T03:20:26.506Z,7.83
2022-12-23T03:23:04.713Z,7.84
2022-12-23T03:25:38.768Z,7.98
2022-12-23T03:28:12.689Z,8.17
2022-12-23T03:30:45.715Z,8.16
2022-12-23T03:33:19.567Z,7.91
2022-12-23T03:35:56.591Z,7.61
2022-12-23T03:38:25.969Z,7.82
2022-12-23T03:40:59.223Z,7.78
2022-12-23T03:43:34.410Z,7.99
2022-12-23T03:46:09.977Z,8.01
2022-12-23T03:48:43.770Z,8.19
2022-12-23T03:51:18.131Z,8.11
2022-12-23T03:53:52.929Z,8.24
2022-12-23T03:56:28.335Z,8.00
2022-12-23T03:59:01.874Z,8.14
2022-12-23T04:01:43.960Z,8.12
2022-12-23T04:04:21.358Z,8.14
2022-12-23T04:06:57.974Z,8.19
2022-12-23T04:09:29.324Z,8.25
2022-12-23T04:11:59.373Z,8.21
2022-12-23T04:14:27.640Z,8.12
2022-12-23T04:16:59.323Z,8.10
2022-12-23T04:19:27.765Z,8.12
2022-12-23T04:21:58.507Z,8.24
2022-12-23T04:24:26.764Z,8.27
2022-12-23T04:26:55.029Z,8.23
2022-12-23T04:29:23.429Z,8.17
2022-12-23T04:31:51.733Z,7.98
2022-12-23T04:34:20.115Z,7.93
2022-12-23T04:36:48.439Z,7.95
2022-12-23T04:39:18.127Z,8.26
2022-12-23T04:41:46.434Z,8.17
2022-12-23T04:44:14.727Z,8.20
2022-12-23T04:46:43.320Z,7.88
2022-12-23T04:49:11.804Z,7.99
2022-12-23T04:51:40.079Z,7.85
2022-12-23T04:54:08.383Z,8.12
2022-12-23T04:56:38.040Z,8.15
2022-12-23T04:59:06.338Z,8.08
2022-12-23T05:01:34.946Z,8.38
2022-12-23T05:04:03.444Z,8.18
2022-12-23T05:06:31.961Z,8.09
2022-12-23T05:09:00.595Z,8.13
2022-12-23T05:11:29.241Z,8.02
2022-12-23T05:13:59.092Z,8.03
2022-12-23T05:16:27.447Z,7.94
2022-12-23T05:18:55.833Z,7.86
2022-12-23T05:21:24.170Z,7.82
2022-12-23T05:23:52.587Z,7.89
2022-12-23T05:26:20.971Z,7.93
2022-12-23T05:28:49.431Z,7.77
2022-12-23T05:31:19.188Z,7.78
2022-12-23T05:33:47.634Z,7.78
2022-12-23T05:36:17.119Z,7.89
2022-12-23T05:38:45.438Z,7.88
2022-12-23T05:41:14.156Z,7.70
2022-12-23T05:43:42.423Z,7.64
2022-12-23T05:46:10.783Z,7.78
2022-12-23T05:48:40.543Z,7.74
2022-12-23T05:51:08.819Z,7.85
2022-12-23T05:53:37.161Z,7.54
2022-12-23T05:56:07.007Z,7.68
2022-12-23T05:58:36.502Z,7.60
2022-12-23T06:01:05.519Z,7.68
2022-12-23T06:03:34.081Z,7.72
2022-12-23T06:06:03.922Z,7.85
2022-12-23T06:08:32.285Z,7.85
2022-12-23T06:11:00.774Z,7.75
2022-12-23T06:13:29.057Z,8.02
2022-12-23T06:15:57.493Z,8.10
2022-12-23T06:18:25.801Z,8.17
2022-12-23T06:20:54.203Z,8.21
2022-12-23T06:23:23.855Z,8.20
2022-12-23T06:25:58.920Z,8.41
2022-12-23T06:28:27.238Z,8.37
2022-12-23T06:30:55.755Z,8.46
2022-12-23T06:33:25.048Z,8.49
2022-12-23T06:35:53.403Z,8.42
2022-12-23T06:38:23.081Z,8.43
2022-12-23T06:40:51.419Z,8.44
2022-12-23T06:43:19.678Z,8.44
2022-12-23T06:45:49.117Z,8.37
2022-12-23T06:48:18.547Z,8.35
2022-12-23T06:50:47.202Z,8.48
2022-12-23T06:53:16.002Z,8.45
2022-12-23T06:55:45.668Z,8.43
2022-12-23T06:58:14.027Z,8.22
2022-12-23T07:00:42.251Z,8.33
2022-12-23T07:03:10.863Z,8.28
2022-12-23T07:05:39.377Z,8.24
2022-12-23T07:08:07.914Z,8.07
2022-12-23T07:10:36.347Z,8.23
2022-12-23T07:13:06.144Z,8.35
2022-12-23T07:15:34.621Z,8.29
2022-12-23T07:18:02.904Z,8.31
2022-12-23T07:20:31.297Z,8.24
2022-12-23T07:23:00.006Z,8.15
2022-12-23T07:25:28.745Z,8.08
2022-12-23T07:27:57.392Z,7.92
2022-12-23T07:30:27.418Z,8.17
2022-12-23T07:32:55.833Z,8.17
2022-12-23T07:35:24.221Z,8.28
2022-12-23T07:37:55.013Z,8.23
2022-12-23T07:40:23.825Z,8.33
2022-12-23T07:42:55.280Z,8.43
2022-12-23T07:45:23.918Z,8.21
2022-12-23T07:47:55.972Z,8.24
2022-12-23T07:50:25.742Z,8.41
2022-12-23T07:52:55.095Z,8.19
2022-12-23T07:55:23.876Z,8.35
2022-12-23T07:57:53.487Z,8.31
2022-12-23T08:00:22.789Z,8.41
2022-12-23T08:02:51.246Z,7.97
2022-12-23T08:05:21.297Z,8.35
2022-12-23T08:07:50.414Z,8.59
2022-12-23T08:10:18.930Z,8.55
2022-12-23T08:12:47.596Z,8.60
2022-12-23T08:15:16.153Z,8.48
2022-12-23T08:17:44.519Z,8.63
2022-12-23T08:20:13.631Z,8.69
2022-12-23T08:22:43.276Z,8.64
2022-12-23T08:25:11.772Z,8.71
2022-12-23T08:27:40.209Z,8.65
2022-12-23T08:30:10.492Z,8.54
2022-12-23T08:32:38.938Z,8.54
2022-12-23T08:35:08.526Z,8.51
2022-12-23T08:37:36.832Z,8.50
2022-12-23T08:40:10.760Z,8.49
2022-12-23T08:42:39.084Z,8.59
2022-12-23T08:45:08.599Z,8.61
2022-12-23T08:47:37.033Z,8.65
2022-12-23T08:50:06.535Z,8.54
2022-12-23T08:52:34.921Z,8.61
2022-12-23T08:55:03.433Z,8.58
2022-12-23T08:57:33.070Z,8.54
2022-12-23T09:00:01.660Z,8.63
2022-12-23T09:02:30.091Z,8.73
2022-12-23T09:04:58.637Z,8.59
2022-12-23T09:07:27.060Z,8.72
2022-12-23T09:09:55.350Z,8.74
2022-12-23T09:12:23.742Z,8.79
2022-12-23T09:14:53.711Z,8.81
2022-12-23T09:17:22.056Z,8.84
2022-12-23T09:19:52.921Z,8.56
2022-12-23T09:22:21.846Z,8.72
2022-12-23T09:24:50.168Z,8.88
2022-12-23T09:27:19.543Z,8.87
2022-12-23T09:29:47.947Z,8.93
2022-12-23T09:32:17.860Z,8.70
2022-12-23T09:34:46.475Z,8.91
2022-12-23T09:37:16.742Z,8.95
2022-12-23T09:39:45.086Z,8.95
2022-12-23T09:42:41.966Z,8.90
2022-12-23T09:45:20.183Z,8.79
2022-12-23T09:47:51.531Z,8.96
2022-12-23T09:50:27.555Z,8.86
2022-12-23T09:53:03.569Z,8.73
2022-12-23T09:55:41.421Z,8.71
2022-12-23T09:58:23.872Z,8.87
2022-12-23T10:01:14.628Z,8.89
2022-12-23T10:04:26.477Z,8.79
2022-12-23T10:07:20.651Z,8.77
2022-12-23T10:09:52.990Z,8.65
2022-12-23T10:12:39.129Z,8.69
2022-12-23T10:15:23.372Z,8.71
2022-12-23T10:17:57.042Z,8.61
2022-12-23T10:20:40.540Z,8.76
2022-12-23T10:23:17.832Z,8.65
2022-12-23T10:25:52.638Z,8.63
2022-12-23T10:28:21.373Z,8.73
2022-12-23T10:31:31.080Z,8.57
2022-12-23T10:34:02.186Z,8.58
2022-12-23T10:36:45.912Z,8.67
2022-12-23T10:39:27.093Z,8.57
2022-12-23T10:42:09.981Z,8.49
2022-12-23T10:45:11.042Z,8.51
2022-12-23T10:47:52.810Z,8.56
2022-12-23T10:50:39.895Z,8.59
2022-12-23T10:53:13.497Z,8.75
2022-12-23T10:55:41.998Z,8.88
2022-12-23T10:58:18.187Z,8.77
2022-12-23T11:00:53.114Z,8.81
2022-12-23T11:03:25.341Z,8.87
2022-12-23T11:05:54.936Z,8.77
2022-12-23T11:08:27.249Z,8.75
2022-12-23T11:10:56.430Z,8.75
2022-12-23T11:13:34.825Z,8.81
2022-12-23T11:16:20.292Z,8.82
2022-12-23T11:19:03.301Z,8.65
2022-12-23T11:21:34.264Z,8.40
2022-12-23T11:24:18.561Z,8.68
2022-12-23T11:26:50.365Z,8.80
2022-12-23T11:29:24.668Z,8.81
2022-12-23T11:31:53.493Z,8.80
2022-12-23T11:34:24.813Z,8.83
2022-12-23T11:37:00.171Z,8.87
2022-12-23T11:39:37.324Z,8.79
2022-12-23T11:42:13.037Z,8.72
2022-12-23T11:44:45.371Z,8.90
2022-12-23T11:47:26.194Z,8.68
2022-12-23T11:49:56.924Z,8.68
2022-12-23T11:52:26.991Z,8.87
2022-12-23T11:54:59.493Z,8.86
2022-12-23T11:57:39.867Z,8.67
2022-12-23T12:00:20.577Z,8.83
2022-12-23T12:02:53.444Z,8.69
2022-12-23T12:05:28.411Z,8.78
2022-12-23T12:08:02.573Z,8.55
2022-12-23T12:10:35.801Z,8.62
2022-12-23T12:13:07.409Z,8.40
2022-12-23T12:15:45.443Z,8.55
2022-12-23T12:18:20.029Z,8.62
2022-12-23T12:20:54.444Z,8.42
2022-12-23T12:23:28.774Z,8.52
2022-12-23T12:26:03.868Z,8.35
2022-12-23T12:28:39.340Z,8.54
2022-12-23T12:31:18.203Z,8.60
2022-12-23T12:33:53.318Z,8.71
2022-12-23T12:36:34.103Z,8.86
2022-12-23T12:39:02.571Z,8.98
2022-12-23T12:41:38.225Z,8.88
2022-12-23T12:44:28.010Z,8.81
2022-12-23T12:47:28.141Z,8.88
2022-12-23T12:50:00.016Z,8.83
2022-12-23T12:52:29.382Z,8.79
2022-12-23T12:55:03.634Z,8.81
2022-12-23T12:57:36.341Z,8.89
2022-12-23T13:00:14.550Z,8.88
2022-12-23T13:03:22.879Z,8.89
2022-12-23T13:06:19.051Z,8.94
2022-12-23T13:09:08.647Z,9.00
2022-12-23T13:11:45.190Z,8.87
2022-12-23T13:14:30.923Z,8.95
2022-12-23T13:17:09.377Z,8.88
2022-12-23T13:19:48.028Z,9.02
2022-12-23T13:22:19.606Z,8.94
2022-12-23T13:24:58.539Z,8.78
2022-12-23T13:27:32.758Z,8.85
2022-12-23T13:30:13.056Z,8.92
2022-12-23T13:33:06.818Z,8.83
2022-12-23T13:36:05.243Z,8.86
2022-12-23T13:38:52.942Z,8.65
2022-12-23T13:41:33.603Z,8.75
2022-12-23T13:44:05.314Z,8.65
2022-12-23T13:46:47.006Z,8.77
2022-12-23T13:49:25.888Z,8.65
2022-12-23T13:52:03.755Z,8.71
2022-12-23T13:54:51.785Z,8.71
2022-12-23T13:57:45.956Z,8.78
2022-12-23T14:00:32.593Z,8.80
2022-12-23T14:03:25.017Z,8.80
2022-12-23T14:05:54.446Z,8.44
2022-12-23T14:08:35.742Z,8.70
2022-12-23T14:11:13.496Z,8.74
2022-12-23T14:13:45.699Z,8.65
2022-12-23T14:16:38.335Z,8.62
2022-12-23T14:19:46.126Z,8.88
2022-12-23T14:22:42.990Z,9.01
2022-12-23T14:25:58.129Z,9.09
2022-12-23T14:28:46.362Z,9.03
2022-12-23T14:31:41.609Z,8.97
2022-12-23T14:37:37.063Z,8.92
2022-12-23T14:40:49.642Z,8.45
2022-12-23T14:43:57.518Z,8.51
2022-12-23T14:46:59.587Z,7.98
2022-12-23T14:49:44.599Z,8.33
2022-12-23T14:52:48.286Z,8.59
2022-12-23T14:55:49.624Z,8.70
2022-12-23T14:58:52.763Z,8.81
2022-12-23T15:01:28.417Z,8.68
2022-12-23T15:04:01.664Z,8.75
2022-12-23T15:06:37.135Z,8.92
2022-12-23T15:09:08.533Z,9.06
2022-12-23T15:11:38.084Z,9.09
2022-12-23T15:14:19.867Z,9.14
2022-12-23T15:16:48.430Z,9.14
2022-12-23T15:19:25.872Z,9.02
2022-12-23T15:22:17.313Z,9.10
2022-12-23T15:24:52.230Z,8.99
2022-12-23T15:27:30.216Z,8.98
2022-12-23T15:29:59.338Z,8.99
2022-12-23T15:32:30.288Z,8.89
2022-12-23T15:35:06.750Z,8.75
2022-12-23T15:37:35.765Z,8.66
2022-12-23T15:40:13.136Z,8.70
2022-12-23T15:42:49.317Z,8.52
2022-12-23T15:45:34.634Z,8.55
2022-12-23T15:48:05.326Z,8.21
2022-12-23T15:50:41.826Z,8.16
2022-12-23T15:53:14.958Z,8.14
2022-12-23T15:55:45.162Z,7.96
2022-12-23T15:58:20.863Z,8.12
2022-12-23T16:00:55.646Z,8.15
2022-12-23T16:03:31.433Z,8.21
2022-12-23T16:06:10.773Z,8.11
2022-12-23T16:08:39.868Z,8.23
2022-12-23T16:11:16.408Z,8.17
2022-12-23T16:13:58.802Z,8.19
2022-12-23T16:16:39.686Z,8.03
2022-12-23T16:19:39.857Z,8.38
2022-12-23T16:22:15.683Z,8.44
2022-12-23T16:24:49.858Z,8.37
2022-12-23T16:27:33.451Z,8.41
2022-12-23T16:30:05.340Z,8.24
2022-12-23T16:32:50.370Z,8.29
2022-12-23T16:35:37.049Z,8.18
2022-12-23T16:38:19.465Z,8.27
2022-12-23T16:40:50.098Z,8.29
2022-12-23T16:43:21.306Z,8.35
2022-12-23T16:45:53.987Z,8.17
2022-12-23T16:48:30.636Z,8.32
2022-12-23T16:51:00.213Z,8.29
2022-12-23T16:53:28.924Z,8.09
2022-12-23T16:56:00.839Z,8.17
2022-12-23T16:58:31.183Z,8.22
2022-12-23T17:00:59.791Z,8.24
2022-12-23T17:03:28.094Z,8.06
2022-12-23T17:05:56.344Z,8.23
2022-12-23T17:08:24.950Z,7.74
2022-12-23T17:10:53.596Z,8.27
2022-12-23T17:13:21.888Z,8.01
2022-12-23T17:15:51.564Z,7.65
2022-12-23T17:18:21.046Z,7.70
2022-12-23T17:20:50.786Z,7.96
2022-12-23T17:23:29.081Z,7.93
2022-12-23T17:25:57.718Z,7.68
2022-12-23T17:28:30.103Z,7.86
2022-12-23T17:31:00.358Z,8.16
2022-12-23T17:33:32.580Z,8.04
2022-12-23T17:36:01.756Z,8.07
2022-12-23T17:38:30.189Z,8.14
2022-12-23T17:40:59.457Z,8.12
2022-12-23T17:43:28.078Z,8.10
2022-12-23T17:45:56.587Z,8.06
2022-12-23T17:48:31.448Z,8.17
2022-12-23T17:51:00.384Z,8.06
2022-12-23T17:53:28.913Z,8.19
2022-12-23T17:55:57.238Z,8.14
2022-12-23T17:58:25.552Z,8.01
2022-12-23T18:00:53.964Z,8.11
2022-12-23T18:03:26.130Z,8.10
2022-12-23T18:06:01.643Z,8.14
2022-12-23T18:08:30.603Z,8.25
2022-12-23T18:11:00.495Z,8.19
2022-12-23T18:13:28.929Z,8.21
2022-12-23T18:15:57.444Z,8.14
2022-12-23T18:18:35.559Z,8.05
2022-12-23T18:21:10.290Z,8.05
2022-12-23T18:23:38.602Z,8.04
2022-12-23T18:26:07.019Z,8.11
2022-12-23T18:28:35.358Z,8.05
2022-12-23T18:31:03.738Z,8.07
2022-12-23T18:33:33.533Z,7.93
2022-12-23T18:36:01.831Z,7.99
2022-12-23T18:38:30.141Z,8.00
2022-12-23T18:40:58.602Z,7.78
2022-12-23T18:43:28.085Z,7.94
2022-12-23T18:45:56.605Z,7.95
2022-12-23T18:48:25.033Z,7.92
2022-12-23T18:50:54.723Z,7.85
2022-12-23T18:53:25.482Z,7.95
2022-12-23T18:55:55.162Z,7.94
2022-12-23T18:58:24.428Z,8.03
2022-12-23T19:00:54.315Z,7.77
2022-12-23T19:03:25.473Z,7.89
2022-12-23T19:05:57.154Z,7.86
2022-12-23T19:08:27.977Z,7.97
2022-12-23T19:10:56.975Z,8.09
2022-12-23T19:13:25.505Z,8.09
2022-12-23T19:15:53.957Z,8.04
2022-12-23T19:18:23.534Z,7.91
2022-12-23T19:20:51.875Z,7.82
2022-12-23T19:23:21.682Z,8.07
2022-12-23T19:25:55.193Z,7.60
2022-12-23T19:28:24.381Z,7.67
2022-12-23T19:30:52.821Z,7.74
2022-12-23T19:33:23.956Z,7.65
2022-12-23T19:35:52.322Z,7.66
2022-12-23T19:38:22.003Z,7.38
2022-12-23T19:40:58.627Z,7.77
2022-12-23T19:43:27.079Z,7.62
2022-12-23T19:45:59.974Z,7.87
2022-12-23T19:48:29.051Z,7.99
2022-12-23T19:50:59.428Z,7.95
2022-12-23T19:53:29.719Z,7.85
2022-12-23T19:55:59.516Z,7.68
2022-12-23T19:58:28.584Z,8.01
2022-12-23T20:01:08.177Z,7.75
2022-12-23T20:03:37.524Z,7.69
2022-12-23T20:06:07.266Z,7.81
2022-12-23T20:08:36.971Z,7.87
2022-12-23T20:11:07.897Z,7.82
2022-12-23T20:13:37.108Z,7.63
2022-12-23T20:16:07.321Z,7.54
2022-12-23T20:18:35.963Z,7.74
2022-12-23T20:21:05.177Z,7.81
2022-12-23T20:23:33.754Z,7.72
2022-12-23T20:26:04.270Z,7.85
2022-12-23T20:28:34.567Z,7.63
2022-12-23T20:31:09.213Z,7.74
2022-12-23T20:33:39.241Z,7.77
2022-12-23T20:36:09.066Z,7.83
2022-12-23T20:38:38.694Z,7.72
2022-12-23T20:41:10.627Z,7.62
2022-12-23T20:43:39.016Z,7.75
2022-12-23T20:46:10.029Z,7.74
2022-12-23T20:48:38.703Z,7.71
2022-12-23T20:51:09.623Z,7.74
2022-12-23T20:53:38.639Z,7.78
2022-12-23T20:56:12.596Z,7.38
2022-12-23T20:58:55.855Z,7.72
2022-12-23T21:01:27.903Z,7.70
2022-12-23T21:03:57.622Z,7.60
2022-12-23T21:06:26.890Z,7.73
2022-12-23T21:08:58.156Z,7.70
2022-12-23T21:11:30.230Z,7.78
2022-12-23T21:14:06.427Z,7.75
2022-12-23T21:16:36.474Z,7.66
2022-12-23T21:19:05.872Z,7.73
2022-12-23T21:21:34.702Z,7.76
2022-12-23T21:24:05.288Z,7.70
2022-12-23T21:26:36.365Z,7.75
2022-12-23T21:29:08.233Z,7.72
2022-12-23T21:31:39.479Z,7.63
2022-12-23T21:34:08.888Z,7.73
2022-12-23T21:36:39.683Z,7.49
2022-12-23T21:39:11.575Z,7.49
2022-12-23T21:41:42.202Z,7.57
2022-12-23T21:44:13.501Z,7.59
2022-12-23T21:46:41.954Z,7.45
2022-12-23T21:49:11.495Z,7.42
2022-12-23T21:51:41.317Z,7.54
2022-12-23T21:54:11.448Z,7.50
2022-12-23T21:56:42.533Z,7.40
2022-12-23T21:59:15.235Z,7.61
2022-12-23T22:01:44.844Z,7.59
2022-12-23T22:04:13.653Z,7.21
2022-12-23T22:06:44.666Z,7.41
2022-12-23T22:09:16.375Z,7.50
2022-12-23T22:11:47.375Z,7.51
2022-12-23T22:14:19.034Z,7.50
2022-12-23T22:16:47.660Z,7.49
2022-12-23T22:19:16.354Z,7.47
2022-12-23T22:21:44.723Z,7.34
2022-12-23T22:24:13.259Z,7.42
2022-12-23T22:26:42.067Z,7.17
2022-12-23T22:29:12.395Z,7.39
2022-12-23T22:31:45.273Z,7.48
2022-12-23T22:34:16.764Z,7.27
2022-12-23T22:36:45.650Z,7.43
2022-12-23T22:39:21.153Z,7.27
2022-12-23T22:41:50.736Z,7.19
2022-12-23T22:44:21.665Z,7.25
2022-12-23T22:46:50.678Z,7.25
2022-12-23T22:49:19.295Z,7.11
2022-12-23T22:51:47.801Z,7.17
2022-12-23T22:54:16.238Z,7.05
2022-12-23T22:56:45.830Z,6.84
2022-12-23T22:59:22.877Z,6.89
2022-12-23T23:01:52.606Z,6.99
2022-12-23T23:04:21.069Z,6.84
2022-12-23T23:06:49.378Z,7.13
2022-12-23T23:09:20.824Z,7.11
2022-12-23T23:11:50.046Z,7.12
2022-12-23T23:14:19.608Z,7.12
2022-12-23T23:16:49.546Z,7.08
2022-12-23T23:19:20.400Z,6.92
2022-12-23T23:21:49.301Z,6.87
2022-12-23T23:24:17.793Z,6.93
2022-12-23T23:26:46.265Z,6.86
2022-12-23T23:29:14.757Z,6.86
2022-12-23T23:31:44.233Z,6.86
2022-12-23T23:34:14.718Z,6.82
2022-12-23T23:36:43.295Z,6.80
2022-12-23T23:39:13.483Z,6.70
2022-12-23T23:41:42.046Z,6.71
2022-12-23T23:44:11.018Z,6.74
2022-12-23T23:46:39.455Z,6.69
2022-12-23T23:49:08.489Z,6.66
2022-12-23T23:51:38.276Z,6.62
2022-12-23T23:54:06.784Z,6.71
2022-12-23T23:56:38.649Z,6.57
2022-12-23T23:59:08.742Z,6.66
